sensor_id;sensor_type;location;lat;lon;timestamp;pressure;altitude;pressure_sealevel;temperature
65569;BMP180;52211;50.154;8.682;2022-10-19T00:01:24;101133.00;;;19.00
65569;BMP180;52211;50.154;8.682;2022-10-19T00:03:58;101129.00;;;19.00
65569;BMP180;52211;50.154;8.682;2022-10-19T00:06:35;101126.00;;;19.00
65569;BMP180;52211;50.154;8.682;2022-10-19T00:09:12;101128.00;;;18.90
65569;BMP180;52211;50.154;8.682;2022-10-19T00:11:48;101124.00;;;18.90
65569;BMP180;52211;50.154;8.682;2022-10-19T00:14:20;101125.00;;;18.90
65569;BMP180;52211;50.154;8.682;2022-10-19T00:16:51;101125.00;;;18.90
65569;BMP180;52211;50.154;8.682;2022-10-19T00:19:23;101127.00;;;18.90
65569;BMP180;52211;50.154;8.682;2022-10-19T00:21:50;101121.00;;;18.90
65569;BMP180;52211;50.154;8.682;2022-10-19T00:24:18;101125.00;;;18.80
65569;BMP180;52211;50.154;8.682;2022-10-19T00:26:50;101118.00;;;18.80
65569;BMP180;52211;50.154;8.682;2022-10-19T00:29:19;101121.00;;;18.80
65569;BMP180;52211;50.154;8.682;2022-10-19T00:31:52;101116.00;;;18.80
65569;BMP180;52211;50.154;8.682;2022-10-19T00:34:21;101116.00;;;18.80
65569;BMP180;52211;50.154;8.682;2022-10-19T00:36:47;101110.00;;;18.80
65569;BMP180;52211;50.154;8.682;2022-10-19T00:39:17;101108.00;;;18.70
65569;BMP180;52211;50.154;8.682;2022-10-19T00:41:47;101110.00;;;18.70
65569;BMP180;52211;50.154;8.682;2022-10-19T00:46:44;101118.00;;;18.70
65569;BMP180;52211;50.154;8.682;2022-10-19T00:49:23;101121.00;;;18.70
65569;BMP180;52211;50.154;8.682;2022-10-19T00:51:56;101113.00;;;18.60
65569;BMP180;52211;50.154;8.682;2022-10-19T00:54:26;101113.00;;;18.60
65569;BMP180;52211;50.154;8.682;2022-10-19T00:56:57;101109.00;;;18.60
65569;BMP180;52211;50.154;8.682;2022-10-19T00:59:26;101119.00;;;18.60
65569;BMP180;52211;50.154;8.682;2022-10-19T01:02:03;101123.00;;;18.50
65569;BMP180;52211;50.154;8.682;2022-10-19T01:04:35;101108.00;;;18.50
65569;BMP180;52211;50.154;8.682;2022-10-19T01:07:04;101108.00;;;18.50
65569;BMP180;52211;50.154;8.682;2022-10-19T01:09:36;101103.00;;;18.40
65569;BMP180;52211;50.154;8.682;2022-10-19T01:27:17;101100.00;;;18.30
65569;BMP180;52211;50.154;8.682;2022-10-19T01:30:08;101094.00;;;18.30
65569;BMP180;52211;50.154;8.682;2022-10-19T01:33:27;101088.00;;;18.20
65569;BMP180;52211;50.154;8.682;2022-10-19T01:36:08;101092.00;;;18.20
65569;BMP180;52211;50.154;8.682;2022-10-19T01:39:02;101094.00;;;18.20
65569;BMP180;52211;50.154;8.682;2022-10-19T01:44:28;101089.00;;;18.20
65569;BMP180;52211;50.154;8.682;2022-10-19T01:47:09;101091.00;;;18.20
65569;BMP180;52211;50.154;8.682;2022-10-19T01:49:49;101094.00;;;18.20
65569;BMP180;52211;50.154;8.682;2022-10-19T01:52:21;101090.00;;;18.20
65569;BMP180;52211;50.154;8.682;2022-10-19T01:54:56;101084.00;;;18.20
65569;BMP180;52211;50.154;8.682;2022-10-19T01:57:33;101085.00;;;18.10
65569;BMP180;52211;50.154;8.682;2022-10-19T02:00:06;101081.00;;;18.10
65569;BMP180;52211;50.154;8.682;2022-10-19T02:02:42;101085.00;;;18.10
65569;BMP180;52211;50.154;8.682;2022-10-19T02:05:13;101093.00;;;18.10
65569;BMP180;52211;50.154;8.682;2022-10-19T02:07:48;101088.00;;;18.10
65569;BMP180;52211;50.154;8.682;2022-10-19T02:10:17;101093.00;;;18.10
65569;BMP180;52211;50.154;8.682;2022-10-19T02:12:48;101088.00;;;18.00
65569;BMP180;52211;50.154;8.682;2022-10-19T02:15:20;101091.00;;;18.00
65569;BMP180;52211;50.154;8.682;2022-10-19T02:17:53;101083.00;;;17.90
65569;BMP180;52211;50.154;8.682;2022-10-19T02:20:27;101083.00;;;17.90
65569;BMP180;52211;50.154;8.682;2022-10-19T02:22:56;101086.00;;;17.90
65569;BMP180;52211;50.154;8.682;2022-10-19T02:25:25;101086.00;;;17.90
65569;BMP180;52211;50.154;8.682;2022-10-19T02:27:53;101082.00;;;17.90
65569;BMP180;52211;50.154;8.682;2022-10-19T02:30:20;101084.00;;;17.90
65569;BMP180;52211;50.154;8.682;2022-10-19T02:32:50;101088.00;;;17.80
65569;BMP180;52211;50.154;8.682;2022-10-19T02:35:17;101084.00;;;17.80
65569;BMP180;52211;50.154;8.682;2022-10-19T02:37:47;101073.00;;;17.80
65569;BMP180;52211;50.154;8.682;2022-10-19T02:40:17;101066.00;;;17.80
65569;BMP180;52211;50.154;8.682;2022-10-19T02:43:04;101074.00;;;17.70
65569;BMP180;52211;50.154;8.682;2022-10-19T02:45:47;101063.00;;;17.70
65569;BMP180;52211;50.154;8.682;2022-10-19T02:48:22;101073.00;;;17.70
65569;BMP180;52211;50.154;8.682;2022-10-19T02:50:50;101072.00;;;17.70
65569;BMP180;52211;50.154;8.682;2022-10-19T02:53:19;101064.00;;;17.70
65569;BMP180;52211;50.154;8.682;2022-10-19T02:55:50;101062.00;;;17.70
65569;BMP180;52211;50.154;8.682;2022-10-19T02:58:24;101062.00;;;17.70
65569;BMP180;52211;50.154;8.682;2022-10-19T03:00:50;101063.00;;;17.80
65569;BMP180;52211;50.154;8.682;2022-10-19T03:03:19;101059.00;;;17.80
65569;BMP180;52211;50.154;8.682;2022-10-19T03:05:46;101056.00;;;17.80
65569;BMP180;52211;50.154;8.682;2022-10-19T03:08:15;101051.00;;;17.80
65569;BMP180;52211;50.154;8.682;2022-10-19T03:10:45;101052.00;;;17.80
65569;BMP180;52211;50.154;8.682;2022-10-19T03:13:11;101045.00;;;17.80
65569;BMP180;52211;50.154;8.682;2022-10-19T03:15:41;101054.00;;;17.80
65569;BMP180;52211;50.154;8.682;2022-10-19T03:18:07;101039.00;;;17.80
65569;BMP180;52211;50.154;8.682;2022-10-19T03:20:36;101041.00;;;17.80
65569;BMP180;52211;50.154;8.682;2022-10-19T03:23:03;101043.00;;;17.80
65569;BMP180;52211;50.154;8.682;2022-10-19T03:25:34;101045.00;;;17.80
65569;BMP180;52211;50.154;8.682;2022-10-19T03:28:03;101043.00;;;17.90
65569;BMP180;52211;50.154;8.682;2022-10-19T03:30:30;101041.00;;;17.90
65569;BMP180;52211;50.154;8.682;2022-10-19T03:32:57;101039.00;;;17.90
65569;BMP180;52211;50.154;8.682;2022-10-19T03:35:24;101037.00;;;17.90
65569;BMP180;52211;50.154;8.682;2022-10-19T03:37:53;101034.00;;;17.90
65569;BMP180;52211;50.154;8.682;2022-10-19T03:40:20;101043.00;;;17.90
65569;BMP180;52211;50.154;8.682;2022-10-19T03:42:50;101038.00;;;17.90
65569;BMP180;52211;50.154;8.682;2022-10-19T03:45:17;101037.00;;;17.90
65569;BMP180;52211;50.154;8.682;2022-10-19T03:47:55;101038.00;;;17.80
65569;BMP180;52211;50.154;8.682;2022-10-19T03:50:22;101040.00;;;17.80
65569;BMP180;52211;50.154;8.682;2022-10-19T03:52:51;101035.00;;;17.80
65569;BMP180;52211;50.154;8.682;2022-10-19T03:55:20;101043.00;;;17.80
65569;BMP180;52211;50.154;8.682;2022-10-19T03:57:49;101046.00;;;17.70
65569;BMP180;52211;50.154;8.682;2022-10-19T04:00:16;101045.00;;;17.70
65569;BMP180;52211;50.154;8.682;2022-10-19T04:02:43;101041.00;;;17.70
65569;BMP180;52211;50.154;8.682;2022-10-19T04:05:09;101049.00;;;17.70
65569;BMP180;52211;50.154;8.682;2022-10-19T04:07:38;101054.00;;;17.70
65569;BMP180;52211;50.154;8.682;2022-10-19T04:10:06;101045.00;;;17.60
65569;BMP180;52211;50.154;8.682;2022-10-19T04:12:37;101046.00;;;17.60
65569;BMP180;52211;50.154;8.682;2022-10-19T04:15:07;101048.00;;;17.60
65569;BMP180;52211;50.154;8.682;2022-10-19T04:17:36;101052.00;;;17.60
65569;BMP180;52211;50.154;8.682;2022-10-19T04:20:07;101044.00;;;17.60
65569;BMP180;52211;50.154;8.682;2022-10-19T04:22:36;101052.00;;;17.60
65569;BMP180;52211;50.154;8.682;2022-10-19T04:25:09;101058.00;;;17.60
65569;BMP180;52211;50.154;8.682;2022-10-19T04:27:40;101062.00;;;17.60
65569;BMP180;52211;50.154;8.682;2022-10-19T04:30:09;101064.00;;;17.60
65569;BMP180;52211;50.154;8.682;2022-10-19T04:32:41;101067.00;;;17.50
65569;BMP180;52211;50.154;8.682;2022-10-19T04:35:08;101062.00;;;17.50
65569;BMP180;52211;50.154;8.682;2022-10-19T04:37:36;101062.00;;;17.60
65569;BMP180;52211;50.154;8.682;2022-10-19T04:40:06;101055.00;;;17.60
65569;BMP180;52211;50.154;8.682;2022-10-19T04:42:43;101048.00;;;17.60
65569;BMP180;52211;50.154;8.682;2022-10-19T04:45:10;101043.00;;;17.60
65569;BMP180;52211;50.154;8.682;2022-10-19T04:47:37;101051.00;;;17.60
65569;BMP180;52211;50.154;8.682;2022-10-19T04:50:10;101050.00;;;17.60
65569;BMP180;52211;50.154;8.682;2022-10-19T04:52:39;101055.00;;;17.60
65569;BMP180;52211;50.154;8.682;2022-10-19T04:55:08;101055.00;;;17.60
65569;BMP180;52211;50.154;8.682;2022-10-19T04:57:37;101058.00;;;17.60
65569;BMP180;52211;50.154;8.682;2022-10-19T05:00:10;101059.00;;;17.60
65569;BMP180;52211;50.154;8.682;2022-10-19T05:02:44;101057.00;;;17.60
65569;BMP180;52211;50.154;8.682;2022-10-19T05:05:13;101047.00;;;17.60
65569;BMP180;52211;50.154;8.682;2022-10-19T05:07:40;101051.00;;;17.60
65569;BMP180;52211;50.154;8.682;2022-10-19T05:10:09;101048.00;;;17.60
65569;BMP180;52211;50.154;8.682;2022-10-19T05:12:39;101055.00;;;17.60
65569;BMP180;52211;50.154;8.682;2022-10-19T05:15:09;101058.00;;;17.60
65569;BMP180;52211;50.154;8.682;2022-10-19T05:17:38;101058.00;;;17.60
65569;BMP180;52211;50.154;8.682;2022-10-19T05:20:05;101058.00;;;17.60
65569;BMP180;52211;50.154;8.682;2022-10-19T05:22:35;101059.00;;;17.60
65569;BMP180;52211;50.154;8.682;2022-10-19T05:25:04;101064.00;;;17.60
65569;BMP180;52211;50.154;8.682;2022-10-19T05:27:33;101064.00;;;17.60
65569;BMP180;52211;50.154;8.682;2022-10-19T05:30:03;101061.00;;;17.50
65569;BMP180;52211;50.154;8.682;2022-10-19T05:32:34;101062.00;;;17.50
65569;BMP180;52211;50.154;8.682;2022-10-19T05:35:01;101055.00;;;17.50
65569;BMP180;52211;50.154;8.682;2022-10-19T05:37:27;101064.00;;;17.50
65569;BMP180;52211;50.154;8.682;2022-10-19T05:40:00;101056.00;;;17.50
65569;BMP180;52211;50.154;8.682;2022-10-19T05:42:31;101061.00;;;17.40
65569;BMP180;52211;50.154;8.682;2022-10-19T05:44:57;101050.00;;;17.40
65569;BMP180;52211;50.154;8.682;2022-10-19T05:47:24;101046.00;;;17.40
65569;BMP180;52211;50.154;8.682;2022-10-19T05:49:58;101056.00;;;17.40
65569;BMP180;52211;50.154;8.682;2022-10-19T05:52:25;101050.00;;;17.40
65569;BMP180;52211;50.154;8.682;2022-10-19T05:54:57;101050.00;;;17.40
65569;BMP180;52211;50.154;8.682;2022-10-19T05:57:28;101049.00;;;17.40
65569;BMP180;52211;50.154;8.682;2022-10-19T05:59:57;101063.00;;;17.40
65569;BMP180;52211;50.154;8.682;2022-10-19T06:02:24;101067.00;;;17.40
65569;BMP180;52211;50.154;8.682;2022-10-19T06:04:53;101073.00;;;17.40
65569;BMP180;52211;50.154;8.682;2022-10-19T06:07:20;101062.00;;;17.40
65569;BMP180;52211;50.154;8.682;2022-10-19T06:09:46;101069.00;;;17.40
65569;BMP180;52211;50.154;8.682;2022-10-19T06:12:20;101064.00;;;17.40
65569;BMP180;52211;50.154;8.682;2022-10-19T06:14:50;101057.00;;;17.40
65569;BMP180;52211;50.154;8.682;2022-10-19T06:17:17;101057.00;;;17.40
65569;BMP180;52211;50.154;8.682;2022-10-19T06:19:51;101054.00;;;17.40
65569;BMP180;52211;50.154;8.682;2022-10-19T06:22:18;101062.00;;;17.50
65569;BMP180;52211;50.154;8.682;2022-10-19T06:24:47;101055.00;;;17.40
65569;BMP180;52211;50.154;8.682;2022-10-19T06:27:14;101060.00;;;17.40
65569;BMP180;52211;50.154;8.682;2022-10-19T06:29:41;101053.00;;;17.40
65569;BMP180;52211;50.154;8.682;2022-10-19T06:32:10;101058.00;;;17.30
65569;BMP180;52211;50.154;8.682;2022-10-19T06:34:39;101056.00;;;17.30
65569;BMP180;52211;50.154;8.682;2022-10-19T06:37:08;101065.00;;;17.20
65569;BMP180;52211;50.154;8.682;2022-10-19T06:39:36;101072.00;;;17.20
65569;BMP180;52211;50.154;8.682;2022-10-19T06:42:06;101073.00;;;17.20
65569;BMP180;52211;50.154;8.682;2022-10-19T06:44:36;101069.00;;;17.20
65569;BMP180;52211;50.154;8.682;2022-10-19T06:47:10;101076.00;;;17.20
65569;BMP180;52211;50.154;8.682;2022-10-19T06:49:37;101071.00;;;17.20
65569;BMP180;52211;50.154;8.682;2022-10-19T06:52:06;101084.00;;;17.20
65569;BMP180;52211;50.154;8.682;2022-10-19T06:54:37;101081.00;;;17.10
65569;BMP180;52211;50.154;8.682;2022-10-19T06:57:06;101081.00;;;17.10
65569;BMP180;52211;50.154;8.682;2022-10-19T06:59:40;101074.00;;;17.10
65569;BMP180;52211;50.154;8.682;2022-10-19T07:02:10;101079.00;;;17.10
65569;BMP180;52211;50.154;8.682;2022-10-19T07:04:37;101090.00;;;17.10
65569;BMP180;52211;50.154;8.682;2022-10-19T07:07:09;101083.00;;;17.10
65569;BMP180;52211;50.154;8.682;2022-10-19T07:09:36;101085.00;;;17.10
65569;BMP180;52211;50.154;8.682;2022-10-19T07:12:05;101085.00;;;17.10
65569;BMP180;52211;50.154;8.682;2022-10-19T07:14:32;101085.00;;;17.10
65569;BMP180;52211;50.154;8.682;2022-10-19T07:17:09;101085.00;;;17.10
65569;BMP180;52211;50.154;8.682;2022-10-19T07:19:41;101082.00;;;17.10
65569;BMP180;52211;50.154;8.682;2022-10-19T07:22:10;101085.00;;;17.10
65569;BMP180;52211;50.154;8.682;2022-10-19T07:24:49;101083.00;;;17.00
65569;BMP180;52211;50.154;8.682;2022-10-19T07:27:16;101082.00;;;17.00
65569;BMP180;52211;50.154;8.682;2022-10-19T07:29:43;101084.00;;;16.90
65569;BMP180;52211;50.154;8.682;2022-10-19T07:32:12;101095.00;;;16.90
65569;BMP180;52211;50.154;8.682;2022-10-19T07:34:38;101094.00;;;16.90
65569;BMP180;52211;50.154;8.682;2022-10-19T07:37:05;101092.00;;;16.90
65569;BMP180;52211;50.154;8.682;2022-10-19T07:39:32;101091.00;;;16.90
65569;BMP180;52211;50.154;8.682;2022-10-19T07:41:59;101101.00;;;16.80
65569;BMP180;52211;50.154;8.682;2022-10-19T07:44:25;101096.00;;;16.80
65569;BMP180;52211;50.154;8.682;2022-10-19T07:46:55;101099.00;;;16.80
65569;BMP180;52211;50.154;8.682;2022-10-19T07:49:24;101105.00;;;16.70
65569;BMP180;52211;50.154;8.682;2022-10-19T07:51:53;101094.00;;;16.70
65569;BMP180;52211;50.154;8.682;2022-10-19T07:54:23;101108.00;;;16.70
65569;BMP180;52211;50.154;8.682;2022-10-19T07:56:57;101114.00;;;16.60
65569;BMP180;52211;50.154;8.682;2022-10-19T07:59:24;101120.00;;;16.60
65569;BMP180;52211;50.154;8.682;2022-10-19T08:01:53;101121.00;;;16.60
65569;BMP180;52211;50.154;8.682;2022-10-19T08:04:22;101119.00;;;16.70
65569;BMP180;52211;50.154;8.682;2022-10-19T08:07:10;101119.00;;;16.70
65569;BMP180;52211;50.154;8.682;2022-10-19T08:09:37;101124.00;;;16.70
65569;BMP180;52211;50.154;8.682;2022-10-19T08:12:21;101122.00;;;16.70
65569;BMP180;52211;50.154;8.682;2022-10-19T08:14:48;101121.00;;;16.70
65569;BMP180;52211;50.154;8.682;2022-10-19T08:17:17;101125.00;;;16.70
65569;BMP180;52211;50.154;8.682;2022-10-19T08:19:47;101130.00;;;16.70
65569;BMP180;52211;50.154;8.682;2022-10-19T08:22:18;101121.00;;;16.70
65569;BMP180;52211;50.154;8.682;2022-10-19T08:24:50;101118.00;;;16.70
65569;BMP180;52211;50.154;8.682;2022-10-19T08:27:19;101124.00;;;16.70
65569;BMP180;52211;50.154;8.682;2022-10-19T08:29:48;101118.00;;;16.70
65569;BMP180;52211;50.154;8.682;2022-10-19T08:32:18;101111.00;;;16.70
65569;BMP180;52211;50.154;8.682;2022-10-19T08:34:47;101107.00;;;16.70
65569;BMP180;52211;50.154;8.682;2022-10-19T08:37:14;101107.00;;;16.80
65569;BMP180;52211;50.154;8.682;2022-10-19T08:40:03;101095.00;;;16.90
65569;BMP180;52211;50.154;8.682;2022-10-19T08:42:53;101094.00;;;16.90
65569;BMP180;52211;50.154;8.682;2022-10-19T08:45:41;101087.00;;;17.00
65569;BMP180;52211;50.154;8.682;2022-10-19T08:48:35;101092.00;;;17.10
65569;BMP180;52211;50.154;8.682;2022-10-19T08:51:04;101078.00;;;17.20
65569;BMP180;52211;50.154;8.682;2022-10-19T08:53:49;101083.00;;;17.20
65569;BMP180;52211;50.154;8.682;2022-10-19T09:02:11;101081.00;;;17.20
65569;BMP180;52211;50.154;8.682;2022-10-19T09:04:46;101076.00;;;17.20
65569;BMP180;52211;50.154;8.682;2022-10-19T09:07:32;101073.00;;;17.30
65569;BMP180;52211;50.154;8.682;2022-10-19T09:15:48;101069.00;;;17.30
65569;BMP180;52211;50.154;8.682;2022-10-19T09:18:25;101068.00;;;17.40
65569;BMP180;52211;50.154;8.682;2022-10-19T09:26:27;101066.00;;;17.40
65569;BMP180;52211;50.154;8.682;2022-10-19T09:31:39;101068.00;;;17.50
65569;BMP180;52211;50.154;8.682;2022-10-19T09:34:22;101066.00;;;17.50
65569;BMP180;52211;50.154;8.682;2022-10-19T09:36:54;101068.00;;;17.60
65569;BMP180;52211;50.154;8.682;2022-10-19T09:39:25;101064.00;;;17.60
65569;BMP180;52211;50.154;8.682;2022-10-19T09:42:21;101062.00;;;17.70
65569;BMP180;52211;50.154;8.682;2022-10-19T09:44:51;101057.00;;;17.80
65569;BMP180;52211;50.154;8.682;2022-10-19T09:47:39;101061.00;;;17.90
65569;BMP180;52211;50.154;8.682;2022-10-19T09:55:46;101079.00;;;18.90
65569;BMP180;52211;50.154;8.682;2022-10-19T09:58:28;101075.00;;;19.40
65569;BMP180;52211;50.154;8.682;2022-10-19T10:01:01;101073.00;;;19.80
65569;BMP180;52211;50.154;8.682;2022-10-19T10:03:38;101072.00;;;20.10
65569;BMP180;52211;50.154;8.682;2022-10-19T10:06:15;101065.00;;;20.30
65569;BMP180;52211;50.154;8.682;2022-10-19T10:08:53;101058.00;;;20.40
65569;BMP180;52211;50.154;8.682;2022-10-19T10:11:29;101062.00;;;20.60
65569;BMP180;52211;50.154;8.682;2022-10-19T10:14:03;101067.00;;;20.90
65569;BMP180;52211;50.154;8.682;2022-10-19T10:16:40;101055.00;;;21.20
65569;BMP180;52211;50.154;8.682;2022-10-19T10:19:17;101063.00;;;21.50
65569;BMP180;52211;50.154;8.682;2022-10-19T10:21:52;101064.00;;;21.80
65569;BMP180;52211;50.154;8.682;2022-10-19T10:24:29;101075.00;;;22.20
65569;BMP180;52211;50.154;8.682;2022-10-19T10:27:04;101072.00;;;22.50
65569;BMP180;52211;50.154;8.682;2022-10-19T10:29:37;101062.00;;;22.90
65569;BMP180;52211;50.154;8.682;2022-10-19T10:32:20;101064.00;;;23.20
65569;BMP180;52211;50.154;8.682;2022-10-19T10:35:00;101060.00;;;23.50
65569;BMP180;52211;50.154;8.682;2022-10-19T10:37:44;101066.00;;;23.80
65569;BMP180;52211;50.154;8.682;2022-10-19T10:40:27;101064.00;;;23.90
65569;BMP180;52211;50.154;8.682;2022-10-19T10:43:07;101064.00;;;23.90
65569;BMP180;52211;50.154;8.682;2022-10-19T10:45:50;101055.00;;;23.90
65569;BMP180;52211;50.154;8.682;2022-10-19T10:51:27;101045.00;;;23.70
65569;BMP180;52211;50.154;8.682;2022-10-19T10:54:30;101043.00;;;23.60
65569;BMP180;52211;50.154;8.682;2022-10-19T10:57:13;101047.00;;;23.50
65569;BMP180;52211;50.154;8.682;2022-10-19T11:05:46;101029.00;;;23.10
65569;BMP180;52211;50.154;8.682;2022-10-19T11:11:20;101023.00;;;22.90
65569;BMP180;52211;50.154;8.682;2022-10-19T11:13:58;101020.00;;;22.90
65569;BMP180;52211;50.154;8.682;2022-10-19T11:16:32;101015.00;;;22.80
65569;BMP180;52211;50.154;8.682;2022-10-19T11:19:18;101014.00;;;22.70
65569;BMP180;52211;50.154;8.682;2022-10-19T11:22:18;101012.00;;;22.60
65569;BMP180;52211;50.154;8.682;2022-10-19T11:25:45;101016.00;;;22.50
65569;BMP180;52211;50.154;8.682;2022-10-19T11:28:59;100998.00;;;22.40
65569;BMP180;52211;50.154;8.682;2022-10-19T11:36:58;100985.00;;;22.20
65569;BMP180;52211;50.154;8.682;2022-10-19T11:40:26;100984.00;;;22.20
65569;BMP180;52211;50.154;8.682;2022-10-19T11:51:46;100976.00;;;22.10
65569;BMP180;52211;50.154;8.682;2022-10-19T12:00:08;100958.00;;;22.10
65569;BMP180;52211;50.154;8.682;2022-10-19T12:04:09;100952.00;;;22.10
65569;BMP180;52211;50.154;8.682;2022-10-19T12:06:47;100943.00;;;22.00
65569;BMP180;52211;50.154;8.682;2022-10-19T12:12:32;100941.00;;;22.10
65569;BMP180;52211;50.154;8.682;2022-10-19T12:15:17;100936.00;;;22.00
65569;BMP180;52211;50.154;8.682;2022-10-19T12:17:49;100944.00;;;22.00
65569;BMP180;52211;50.154;8.682;2022-10-19T12:20:43;100935.00;;;22.00
65569;BMP180;52211;50.154;8.682;2022-10-19T12:23:29;100930.00;;;22.00
65569;BMP180;52211;50.154;8.682;2022-10-19T12:26:05;100931.00;;;22.00
65569;BMP180;52211;50.154;8.682;2022-10-19T12:28:46;100926.00;;;22.10
65569;BMP180;52211;50.154;8.682;2022-10-19T12:31:19;100928.00;;;22.10
65569;BMP180;52211;50.154;8.682;2022-10-19T12:39:17;100921.00;;;22.10
65569;BMP180;52211;50.154;8.682;2022-10-19T12:42:28;100915.00;;;22.10
65569;BMP180;52211;50.154;8.682;2022-10-19T12:45:21;100906.00;;;22.10
65569;BMP180;52211;50.154;8.682;2022-10-19T12:48:21;100905.00;;;22.10
65569;BMP180;52211;50.154;8.682;2022-10-19T12:53:39;100898.00;;;22.10
65569;BMP180;52211;50.154;8.682;2022-10-19T13:01:39;100892.00;;;22.10
65569;BMP180;52211;50.154;8.682;2022-10-19T13:04:18;100902.00;;;22.10
65569;BMP180;52211;50.154;8.682;2022-10-19T13:14:50;100882.00;;;22.20
65569;BMP180;52211;50.154;8.682;2022-10-19T13:25:42;100866.00;;;22.30
65569;BMP180;52211;50.154;8.682;2022-10-19T13:50:18;100835.00;;;22.20
65569;BMP180;52211;50.154;8.682;2022-10-19T13:56:01;100831.00;;;22.30
65569;BMP180;52211;50.154;8.682;2022-10-19T13:59:09;100822.00;;;22.30
65569;BMP180;52211;50.154;8.682;2022-10-19T14:13:40;100819.00;;;22.40
65569;BMP180;52211;50.154;8.682;2022-10-19T14:16:20;100819.00;;;22.30
65569;BMP180;52211;50.154;8.682;2022-10-19T14:18:58;100818.00;;;22.30
65569;BMP180;52211;50.154;8.682;2022-10-19T14:21:33;100824.00;;;22.20
65569;BMP180;52211;50.154;8.682;2022-10-19T14:24:18;100820.00;;;22.20
65569;BMP180;52211;50.154;8.682;2022-10-19T14:26:47;100817.00;;;22.10
65569;BMP180;52211;50.154;8.682;2022-10-19T14:29:21;100814.00;;;22.10
65569;BMP180;52211;50.154;8.682;2022-10-19T14:31:48;100810.00;;;22.10
65569;BMP180;52211;50.154;8.682;2022-10-19T14:34:17;100797.00;;;22.10
65569;BMP180;52211;50.154;8.682;2022-10-19T14:36:49;100806.00;;;22.00
65569;BMP180;52211;50.154;8.682;2022-10-19T14:39:31;100799.00;;;22.00
65569;BMP180;52211;50.154;8.682;2022-10-19T14:42:08;100797.00;;;22.00
65569;BMP180;52211;50.154;8.682;2022-10-19T14:44:42;100790.00;;;22.00
65569;BMP180;52211;50.154;8.682;2022-10-19T14:47:27;100797.00;;;22.00
65569;BMP180;52211;50.154;8.682;2022-10-19T14:49:56;100789.00;;;22.00
65569;BMP180;52211;50.154;8.682;2022-10-19T14:52:29;100785.00;;;22.00
65569;BMP180;52211;50.154;8.682;2022-10-19T14:55:06;100790.00;;;22.00
65569;BMP180;52211;50.154;8.682;2022-10-19T14:57:40;100793.00;;;22.00
65569;BMP180;52211;50.154;8.682;2022-10-19T15:00:21;100793.00;;;22.00
65569;BMP180;52211;50.154;8.682;2022-10-19T15:03:00;100789.00;;;22.00
65569;BMP180;52211;50.154;8.682;2022-10-19T15:05:35;100796.00;;;22.00
65569;BMP180;52211;50.154;8.682;2022-10-19T15:08:18;100794.00;;;22.00
65569;BMP180;52211;50.154;8.682;2022-10-19T15:10:48;100796.00;;;22.00
65569;BMP180;52211;50.154;8.682;2022-10-19T15:15:55;100793.00;;;21.90
65569;BMP180;52211;50.154;8.682;2022-10-19T15:18:31;100798.00;;;21.90
65569;BMP180;52211;50.154;8.682;2022-10-19T15:21:20;100790.00;;;21.90
65569;BMP180;52211;50.154;8.682;2022-10-19T15:23:51;100783.00;;;21.90
65569;BMP180;52211;50.154;8.682;2022-10-19T15:28:53;100783.00;;;21.80
65569;BMP180;52211;50.154;8.682;2022-10-19T15:31:26;100781.00;;;21.60
65569;BMP180;52211;50.154;8.682;2022-10-19T15:33:59;100767.00;;;21.60
65569;BMP180;52211;50.154;8.682;2022-10-19T15:36:30;100761.00;;;21.50
65569;BMP180;52211;50.154;8.682;2022-10-19T15:39:07;100766.00;;;21.50
65569;BMP180;52211;50.154;8.682;2022-10-19T15:42:38;100760.00;;;21.30
65569;BMP180;52211;50.154;8.682;2022-10-19T15:50:49;100770.00;;;21.20
65569;BMP180;52211;50.154;8.682;2022-10-19T15:53:23;100754.00;;;21.10
65569;BMP180;52211;50.154;8.682;2022-10-19T15:55:59;100749.00;;;21.10
65569;BMP180;52211;50.154;8.682;2022-10-19T15:58:31;100756.00;;;21.00
65569;BMP180;52211;50.154;8.682;2022-10-19T16:00:57;100762.00;;;20.90
65569;BMP180;52211;50.154;8.682;2022-10-19T16:03:27;100762.00;;;20.90
65569;BMP180;52211;50.154;8.682;2022-10-19T16:05:58;100752.00;;;20.80
65569;BMP180;52211;50.154;8.682;2022-10-19T16:08:25;100757.00;;;20.80
65569;BMP180;52211;50.154;8.682;2022-10-19T16:10:52;100747.00;;;20.70
65569;BMP180;52211;50.154;8.682;2022-10-19T16:13:21;100746.00;;;20.60
65569;BMP180;52211;50.154;8.682;2022-10-19T16:15:53;100745.00;;;20.50
65569;BMP180;52211;50.154;8.682;2022-10-19T16:18:37;100734.00;;;20.50
65569;BMP180;52211;50.154;8.682;2022-10-19T16:21:04;100737.00;;;20.40
65569;BMP180;52211;50.154;8.682;2022-10-19T16:23:31;100729.00;;;20.40
65569;BMP180;52211;50.154;8.682;2022-10-19T16:26:13;100731.00;;;20.30
65569;BMP180;52211;50.154;8.682;2022-10-19T16:28:42;100729.00;;;20.20
65569;BMP180;52211;50.154;8.682;2022-10-19T16:31:10;100729.00;;;20.20
65569;BMP180;52211;50.154;8.682;2022-10-19T16:33:37;100732.00;;;20.10
65569;BMP180;52211;50.154;8.682;2022-10-19T16:36:06;100739.00;;;20.10
65569;BMP180;52211;50.154;8.682;2022-10-19T16:38:36;100736.00;;;20.00
65569;BMP180;52211;50.154;8.682;2022-10-19T16:41:08;100732.00;;;20.00
65569;BMP180;52211;50.154;8.682;2022-10-19T16:43:36;100736.00;;;20.00
65569;BMP180;52211;50.154;8.682;2022-10-19T16:46:08;100732.00;;;19.90
65569;BMP180;52211;50.154;8.682;2022-10-19T16:48:35;100738.00;;;19.90
65569;BMP180;52211;50.154;8.682;2022-10-19T16:53:40;100730.00;;;19.90
65569;BMP180;52211;50.154;8.682;2022-10-19T16:56:11;100731.00;;;19.80
65569;BMP180;52211;50.154;8.682;2022-10-19T16:58:41;100736.00;;;19.80
65569;BMP180;52211;50.154;8.682;2022-10-19T17:01:14;100733.00;;;19.80
65569;BMP180;52211;50.154;8.682;2022-10-19T17:03:48;100728.00;;;19.70
65569;BMP180;52211;50.154;8.682;2022-10-19T17:06:16;100737.00;;;19.70
65569;BMP180;52211;50.154;8.682;2022-10-19T17:08:46;100730.00;;;19.70
65569;BMP180;52211;50.154;8.682;2022-10-19T17:11:36;100727.00;;;19.70
65569;BMP180;52211;50.154;8.682;2022-10-19T17:14:09;100725.00;;;19.60
65569;BMP180;52211;50.154;8.682;2022-10-19T17:16:38;100728.00;;;19.60